SACO/COR METAR and TAF weather

Enter ICAO airport designator
Station Type Date Time Source
SACO METAR 2020/09/22 18:00 UTC NOAA

SACO 221800Z 05021G31KT CAVOK 26/M02 Q1015 NOSIG


Station Type Date Time Source
SACO Decoded METAR 2020/09/22 18:00 UTC NOAA

Cordoba Aerodrome, Argentina (SACO) 31-19S 064-13W 474M
Sep 22, 2020 - 02:00 PM EDT / 2020.09.22 1800 UTC
Wind: from the NE (050 degrees) at 24 MPH (21 KT) gusting to 36 MPH (31 KT):0
Visibility: greater than 7 mile(s):0
Temperature: 78 F (26 C)
Dew Point: 28 F (-2 C)
Relative Humidity: 15%
Pressure (altimeter): 29.97 in. Hg (1015 hPa)
ob: SACO 221800Z 05021G31KT CAVOK 26/M02 Q1015 NOSIG
cycle: 18

Station Type Date Time Source
SACO TAF 2020/09/22 18:27 UTC NOAA

TAF TAF SACO 221700Z 2218/2318 05020G30KT CAVOK TX28/2318Z TN12/2310Z
BECMG 2300/2303 36010KT
BECMG 2315/1318 36015KT

Example: see airport list